Time;durP1;ratioP1;P1;durP2;ratioP2;P2;SDS_P1;SDS_P2;PMS_P1;PMS_P2;Temp;Humidity;BMP_temperature;BMP_pressure;BME280_temperature;BME280_humidity;BME280_pressure;Samples;Min_cycle;Max_cycle;Signal;HPM_P1;HPM_P2
2021/12/08 00:01:40;;;;;;;12.00;7.75;;;;;;;2.56;97.05;99171.53;5030443;28;20456;-83
2021/12/08 00:04:05;;;;;;;33.45;13.38;;;;;;;2.57;96.68;99165.47;5013526;28;20543;-84
2021/12/08 00:06:31;;;;;;;28.15;14.20;;;;;;;2.61;97.40;99177.50;5030797;28;20496;-81
2021/12/08 00:09:03;;;;;;;27.58;14.38;;;;;;;2.64;97.27;99161.13;5015095;28;20496;-80
2021/12/08 00:14:13;;;;;;;19.58;9.27;;;;;;;2.69;97.38;99162.81;5031324;28;20096;-86
2021/12/08 00:16:45;;;;;;;39.63;19.88;;;;;;;2.73;97.11;99161.94;5013411;28;20030;-89
2021/12/08 00:19:11;;;;;;;9.90;6.47;;;;;;;2.76;97.54;99143.78;5029799;28;20037;-83
2021/12/08 00:21:37;;;;;;;49.53;22.55;;;;;;;2.79;97.76;99148.09;5031089;28;20060;-86
2021/12/08 00:24:02;;;;;;;19.77;11.50;;;;;;;2.85;97.78;99139.44;4998387;28;20026;-86
2021/12/08 00:26:28;;;;;;;23.17;11.77;;;;;;;2.87;97.39;99142.84;5032279;28;20095;-83
2021/12/08 00:29:14;;;;;;;29.27;16.27;;;;;;;2.90;97.86;99150.59;4996614;28;20037;-88
2021/12/08 00:31:41;;;;;;;7.55;5.57;;;;;;;2.94;97.41;99183.31;5030597;28;20486;-78
2021/12/08 00:34:06;;;;;;;8.70;5.70;;;;;;;3.00;97.99;99153.97;5013628;28;20136;-85
2021/12/08 00:36:41;;;;;;;26.40;15.75;;;;;;;3.03;97.78;99159.09;5014851;28;20466;-83
2021/12/08 00:39:07;;;;;;;28.23;14.75;;;;;;;3.06;97.60;99165.13;5015344;28;20044;-87
2021/12/08 00:41:32;;;;;;;15.15;7.60;;;;;;;3.10;97.83;99176.31;5023123;28;20029;-83
2021/12/08 00:43:58;;;;;;;8.68;5.43;;;;;;;3.13;97.81;99171.09;5030132;28;20021;-90
2021/12/08 00:46:44;;;;;;;16.80;8.82;;;;;;;3.16;98.15;99152.09;5030862;28;20064;-90
2021/12/08 00:49:12;;;;;;;24.92;13.25;;;;;;;3.19;97.76;99159.84;5014677;28;20040;-88
2021/12/08 00:51:37;;;;;;;9.02;5.78;;;;;;;3.22;97.94;99159.81;5031016;28;20393;-87
2021/12/08 00:54:03;;;;;;;8.00;5.05;;;;;;;3.25;98.26;99152.88;5014755;28;20040;-83
2021/12/08 00:56:29;;;;;;;11.13;5.47;;;;;;;3.27;97.96;99164.06;5030264;28;20459;-90
2021/12/08 00:58:55;;;;;;;30.33;17.45;;;;;;;3.29;98.06;99154.56;5029668;28;20052;-85
2021/12/08 01:01:22;;;;;;;19.13;11.57;;;;;;;3.33;97.80;99151.94;5013851;28;20033;-90
2021/12/08 01:03:48;;;;;;;14.68;7.53;;;;;;;3.37;97.91;99159.66;4996503;28;20026;-88
2021/12/08 01:06:13;;;;;;;9.43;6.05;;;;;;;3.45;97.90;99157.88;4998655;28;20330;-88
2021/12/08 01:08:39;;;;;;;5.05;3.90;;;;;;;3.53;98.31;99181.09;5030861;28;20037;-83
2021/12/08 01:11:12;;;;;;;8.88;5.65;;;;;;;3.63;98.41;99161.16;5031159;28;20441;-83
2021/12/08 01:13:38;;;;;;;5.65;4.18;;;;;;;3.73;98.19;99177.47;5026606;28;20029;-90
2021/12/08 01:16:22;;;;;;;4.53;3.10;;;;;;;3.80;98.38;99190.31;5014463;28;20044;-87
2021/12/08 01:18:48;;;;;;;3.45;3.10;;;;;;;3.90;98.34;99188.50;4994415;28;20553;-86
2021/12/08 01:21:14;;;;;;;5.45;3.33;;;;;;;3.96;98.53;99192.75;5030828;28;20037;-85
2021/12/08 01:23:40;;;;;;;3.10;2.80;;;;;;;4.04;98.38;99183.16;5013559;28;20080;-86
2021/12/08 01:26:07;;;;;;;4.28;2.65;;;;;;;4.12;98.45;99175.28;5029715;28;20033;-82
2021/12/08 01:28:33;;;;;;;7.20;3.20;;;;;;;4.18;98.30;99183.00;5033941;28;20056;-84
2021/12/08 01:31:01;;;;;;;6.45;2.20;;;;;;;4.25;98.60;99182.03;5034662;28;20075;-89
2021/12/08 01:33:29;;;;;;;6.13;2.67;;;;;;;4.28;97.92;99202.75;5033777;28;20548;-88
2021/12/08 01:35:55;;;;;;;4.95;2.45;;;;;;;4.34;98.11;99197.47;5034661;28;20031;-85
2021/12/08 01:38:23;;;;;;;2.42;2.22;;;;;;;4.38;97.82;99193.09;5014716;28;20388;-86
2021/12/08 01:40:52;;;;;;;5.38;2.53;;;;;;;4.40;97.75;99193.94;5017649;28;20033;-88
2021/12/08 01:43:29;;;;;;;5.40;2.42;;;;;;;4.41;97.24;99200.84;5050596;28;20033;-83
2021/12/08 01:46:01;;;;;;;5.85;2.45;;;;;;;4.44;97.02;99192.16;5035726;28;20041;-83
2021/12/08 01:48:30;;;;;;;1.95;1.75;;;;;;;4.46;97.16;99209.41;5049700;28;20037;-83
2021/12/08 01:51:04;;;;;;;2.85;2.03;;;;;;;4.48;96.58;99212.88;5033350;28;20374;-84
2021/12/08 01:53:29;;;;;;;4.30;2.15;;;;;;;4.48;96.96;99212.00;5034031;28;20029;-83
2021/12/08 01:55:55;;;;;;;3.70;2.22;;;;;;;4.48;96.37;99205.09;5017255;28;20388;-82
2021/12/08 01:58:21;;;;;;;2.30;1.77;;;;;;;4.49;96.64;99211.97;5033476;28;20132;-89
2021/12/08 02:00:51;;;;;;;5.72;2.20;;;;;;;4.50;96.60;99213.69;5001076;28;20033;-86
2021/12/08 02:03:18;;;;;;;3.23;1.70;;;;;;;4.55;96.22;99205.00;5033760;28;20380;-84
2021/12/08 02:05:45;;;;;;;3.50;2.13;;;;;;;4.56;95.94;99207.56;5017462;28;20287;-88
2021/12/08 02:08:11;;;;;;;4.75;1.73;;;;;;;4.60;95.86;99211.00;5017847;28;20076;-90
2021/12/08 02:10:38;;;;;;;2.75;1.70;;;;;;;4.62;96.01;99217.00;5033765;28;20122;-87
2021/12/08 02:13:07;;;;;;;4.13;1.85;;;;;;;4.63;95.80;99219.56;5033324;28;20134;-86
2021/12/08 02:15:52;;;;;;;8.53;1.83;;;;;;;4.67;95.76;99231.63;5049856;28;20029;-91
2021/12/08 02:18:18;;;;;;;8.75;2.20;;;;;;;4.71;94.99;99227.25;5016302;28;20128;-85
2021/12/08 02:20:47;;;;;;;2.72;1.65;;;;;;;4.73;94.94;99232.44;5032867;28;20018;-85
2021/12/08 02:23:13;;;;;;;7.88;2.30;;;;;;;4.75;94.69;99231.53;5033550;28;20041;-86
2021/12/08 02:25:38;;;;;;;4.03;1.90;;;;;;;4.77;94.58;99241.88;5006783;28;20022;-87
2021/12/08 02:28:07;;;;;;;2.95;1.77;;;;;;;4.78;94.22;99241.84;5028208;28;20106;-87
2021/12/08 02:31:21;;;;;;;5.78;1.90;;;;;;;4.81;93.80;99251.34;5033204;28;20119;-91
2021/12/08 02:47:31;;;;;;;9.18;2.25;;;;;;;4.86;92.89;99253.00;5032432;28;20036;-84
2021/12/08 02:49:57;;;;;;;6.55;2.65;;;;;;;4.86;92.30;99260.78;5018273;28;20041;-83
2021/12/08 02:52:23;;;;;;;2.42;1.50;;;;;;;4.85;92.34;99266.84;5015943;28;20037;-84
2021/12/08 02:54:51;;;;;;;5.68;2.20;;;;;;;4.83;92.35;99263.41;5015758;28;20040;-83
2021/12/08 02:57:18;;;;;;;6.00;2.30;;;;;;;4.81;92.46;99267.78;4998915;28;20061;-86
2021/12/08 02:59:46;;;;;;;4.45;1.95;;;;;;;4.80;91.98;99262.63;5031234;28;20044;-83
2021/12/08 03:02:12;;;;;;;9.50;2.25;;;;;;;4.78;92.48;99269.56;5014124;28;20045;-85
2021/12/08 03:04:38;;;;;;;6.78;2.50;;;;;;;4.77;91.71;99271.31;5033122;28;20029;-82
2021/12/08 03:07:05;;;;;;;5.65;2.58;;;;;;;4.79;91.91;99274.72;5016357;28;20067;-84
2021/12/08 03:09:31;;;;;;;6.90;2.42;;;;;;;4.75;91.88;99267.00;5012681;28;20330;-86
2021/12/08 03:11:58;;;;;;;7.00;2.53;;;;;;;4.75;92.34;99270.44;5032679;28;20496;-83
2021/12/08 03:14:25;;;;;;;6.50;2.45;;;;;;;4.73;91.84;99261.84;5013750;28;20038;-85
2021/12/08 03:16:56;;;;;;;10.98;2.35;;;;;;;4.72;91.70;99272.25;5015156;28;20151;-84
2021/12/08 03:19:23;;;;;;;7.50;2.60;;;;;;;4.74;91.72;99265.28;5042208;28;20122;-84
2021/12/08 03:21:49;;;;;;;5.90;2.20;;;;;;;4.71;92.02;99273.09;5031866;28;20204;-85
2021/12/08 03:24:30;;;;;;;5.15;2.67;;;;;;;4.74;91.56;99279.13;5032894;28;20021;-83
2021/12/08 03:32:04;;;;;;;4.93;1.55;;;;;;;4.81;90.93;99282.47;5022058;28;20106;-86
2021/12/08 03:34:31;;;;;;;6.55;3.00;;;;;;;4.81;90.37;99291.16;5017186;28;20386;-88
2021/12/08 03:36:59;;;;;;;4.88;2.35;;;;;;;4.85;89.66;99298.00;5016142;28;20029;-85
2021/12/08 03:39:24;;;;;;;6.20;2.05;;;;;;;4.86;89.75;99299.72;5032870;28;20087;-86
2021/12/08 03:41:50;;;;;;;8.40;1.83;;;;;;;4.83;89.65;99289.38;5032360;28;20029;-85
2021/12/08 03:44:15;;;;;;;6.65;2.05;;;;;;;4.83;89.87;99291.13;4997777;28;20030;-84
2021/12/08 03:46:42;;;;;;;11.48;2.20;;;;;;;4.80;89.91;99286.81;5030420;28;20090;-84
2021/12/08 03:49:16;;;;;;;7.70;3.05;;;;;;;4.80;89.49;99294.63;5014983;28;20037;-83
2021/12/08 03:51:42;;;;;;;6.57;2.38;;;;;;;4.75;89.01;99280.81;5030156;28;20040;-84
2021/12/08 03:54:12;;;;;;;4.95;1.60;;;;;;;4.68;88.79;99289.56;5047717;28;20124;-84
2021/12/08 03:56:39;;;;;;;8.90;2.65;;;;;;;4.64;88.85;99298.25;5014522;28;20045;-86
2021/12/08 03:59:06;;;;;;;8.77;2.17;;;;;;;4.61;88.28;99300.91;5014122;28;20049;-86
2021/12/08 04:01:33;;;;;;;12.38;2.55;;;;;;;4.56;88.01;99306.16;5030241;28;20042;-84
2021/12/08 04:04:04;;;;;;;7.20;2.35;;;;;;;4.52;88.10;99299.28;5014333;28;20167;-83
2021/12/08 04:06:34;;;;;;;7.25;1.60;;;;;;;4.48;87.33;99306.25;5030825;28;20025;-84
2021/12/08 04:09:03;;;;;;;12.05;2.47;;;;;;;4.43;87.40;99305.44;5030075;28;20033;-80
2021/12/08 04:11:29;;;;;;;3.63;1.83;;;;;;;4.38;87.19;99307.22;4998934;28;20030;-80
2021/12/08 04:13:57;;;;;;;4.18;1.52;;;;;;;4.31;87.00;99308.16;5028208;28;20045;-85
2021/12/08 04:16:27;;;;;;;3.00;1.63;;;;;;;4.27;86.74;99309.09;5030511;28;20029;-75
2021/12/08 04:18:55;;;;;;;2.90;1.58;;;;;;;4.20;86.48;99310.03;5039722;28;20064;-75
2021/12/08 04:21:21;;;;;;;2.40;1.08;;;;;;;4.14;86.25;99314.38;5030936;28;20500;-74
2021/12/08 04:23:49;;;;;;;9.65;2.78;;;;;;;4.13;86.08;99315.25;5029548;28;20057;-74
2021/12/08 04:26:41;;;;;;;3.58;2.03;;;;;;;4.14;86.29;99319.56;5029980;28;20579;-88
2021/12/08 04:29:11;;;;;;;3.72;1.80;;;;;;;4.13;86.42;99325.63;5030865;28;20053;-86
2021/12/08 04:31:39;;;;;;;9.27;2.42;;;;;;;4.15;86.42;99331.66;5013786;28;20485;-87
2021/12/08 04:34:15;;;;;;;8.80;2.33;;;;;;;4.14;86.27;99337.72;5030267;28;20563;-86
2021/12/08 04:36:46;;;;;;;4.72;2.15;;;;;;;4.13;86.92;99324.78;5030414;28;20561;-84
2021/12/08 04:39:19;;;;;;;6.05;2.13;;;;;;;4.14;86.61;99329.94;5030732;28;20033;-84
2021/12/08 04:41:51;;;;;;;6.63;1.98;;;;;;;4.14;86.68;99329.94;5029733;28;20114;-84
2021/12/08 05:08:42;;;;;;;7.60;2.20;;;;;;;3.88;84.10;99332.78;5032018;28;20109;-82
2021/12/08 05:11:31;;;;;;;5.45;2.15;;;;;;;3.83;84.26;99354.44;5015512;28;20033;-87
2021/12/08 05:14:08;;;;;;;2.85;2.03;;;;;;;3.81;83.61;99347.50;5029913;28;20117;-89
2021/12/08 05:16:39;;;;;;;5.53;1.45;;;;;;;3.82;84.17;99345.78;5028421;28;20025;-89
2021/12/08 05:19:08;;;;;;;6.80;1.77;;;;;;;3.83;83.94;99359.59;5029994;28;20376;-83
2021/12/08 05:21:40;;;;;;;2.80;1.50;;;;;;;3.86;84.05;99362.16;5029187;28;20032;-84
2021/12/08 05:24:20;;;;;;;6.70;1.52;;;;;;;3.90;83.85;99356.09;5013732;28;20010;-85
2021/12/08 05:26:51;;;;;;;11.18;2.55;;;;;;;3.92;84.16;99369.88;5029930;28;20465;-86
2021/12/08 05:29:30;;;;;;;8.88;1.52;;;;;;;3.93;83.88;99356.06;5029874;28;20029;-83
2021/12/08 05:31:57;;;;;;;6.53;1.98;;;;;;;3.93;82.99;99359.50;5044902;28;20079;-85
2021/12/08 05:34:23;;;;;;;4.10;1.60;;;;;;;3.93;82.90;99369.03;5013109;28;20032;-86
2021/12/08 05:36:49;;;;;;;8.95;2.17;;;;;;;3.94;83.13;99360.38;5030912;28;20031;-88
2021/12/08 05:39:20;;;;;;;13.55;2.15;;;;;;;3.93;82.88;99366.44;5013488;28;20132;-84
2021/12/08 05:41:49;;;;;;;7.40;2.28;;;;;;;3.94;82.60;99370.75;5030148;28;20025;-87
2021/12/08 05:44:15;;;;;;;5.15;1.80;;;;;;;3.94;82.90;99375.94;5030673;28;20021;-86
2021/12/08 05:46:46;;;;;;;9.02;2.00;;;;;;;3.97;82.62;99383.69;5030058;28;20084;-86
2021/12/08 05:49:13;;;;;;;;;;;;;;;3.99;82.15;99387.09;5024826;28;20079;-82
2021/12/08 05:51:42;;;;;;;3.50;1.73;;;;;;;3.97;82.50;99388.88;5028966;28;19924;-84
2021/12/08 05:54:21;;;;;;;11.35;2.25;;;;;;;3.94;82.27;99399.25;5014382;28;20025;-84
2021/12/08 05:56:50;;;;;;;6.75;1.98;;;;;;;3.93;82.74;99408.75;5030039;28;20037;-89
2021/12/08 05:59:16;;;;;;;7.60;1.98;;;;;;;3.92;82.32;99400.97;5028088;28;20111;-84
2021/12/08 06:01:51;;;;;;;3.95;1.63;;;;;;;3.90;82.38;99392.38;5027460;28;20497;-88
2021/12/08 06:04:17;;;;;;;12.43;2.22;;;;;;;3.88;82.29;99387.22;5044056;28;20359;-85
2021/12/08 06:06:45;;;;;;;5.35;1.98;;;;;;;3.85;82.46;99388.94;5029439;28;20044;-89
2021/12/08 06:09:12;;;;;;;6.30;2.67;;;;;;;3.84;82.56;99400.22;5030500;28;20128;-82
2021/12/08 06:11:40;;;;;;;4.07;2.05;;;;;;;3.81;82.45;99398.50;5028863;28;20041;-81
2021/12/08 06:14:07;;;;;;;7.03;2.00;;;;;;;3.78;82.86;99409.72;5047493;28;20033;-82
2021/12/08 06:16:37;;;;;;;9.00;2.65;;;;;;;3.77;83.12;99408.00;5030637;28;20032;-87
2021/12/08 06:19:05;;;;;;;12.02;2.95;;;;;;;3.78;82.60;99414.91;5032432;28;20049;-79
2021/12/08 06:21:30;;;;;;;10.60;3.05;;;;;;;3.79;82.45;99421.81;5031278;28;20096;-82
2021/12/08 06:23:58;;;;;;;5.35;2.15;;;;;;;3.73;83.16;99433.94;5032234;28;20053;-83
2021/12/08 06:26:26;;;;;;;11.50;2.90;;;;;;;3.75;82.45;99427.00;5028107;28;20033;-82
2021/12/08 06:28:53;;;;;;;15.13;2.63;;;;;;;3.78;82.73;99429.63;5009517;28;20034;-85
2021/12/08 06:31:24;;;;;;;10.80;2.75;;;;;;;3.80;81.98;99443.41;4995042;28;20029;-80
2021/12/08 06:33:50;;;;;;;7.85;2.38;;;;;;;3.79;82.79;99449.44;5032316;28;20022;-78
2021/12/08 06:36:20;;;;;;;9.63;2.45;;;;;;;3.82;82.19;99449.41;5031358;28;20036;-81
2021/12/08 06:38:47;;;;;;;11.25;2.63;;;;;;;3.81;82.44;99447.72;5032664;28;20026;-83
2021/12/08 06:41:36;;;;;;;13.90;3.10;;;;;;;3.84;82.70;99454.63;5032588;28;20478;-82
2021/12/08 06:44:07;;;;;;;16.48;2.92;;;;;;;3.84;82.14;99457.22;5031688;28;20087;-83
2021/12/08 06:46:33;;;;;;;8.05;2.38;;;;;;;3.86;82.30;99460.66;5032002;28;20111;-88
2021/12/08 06:49:01;;;;;;;6.75;2.05;;;;;;;3.87;81.88;99459.78;5031870;28;20030;-84
2021/12/08 06:51:33;;;;;;;7.30;2.40;;;;;;;3.88;82.04;99458.88;5011555;28;20095;-86
2021/12/08 06:54:05;;;;;;;7.10;2.40;;;;;;;3.85;81.64;99454.63;5030830;28;20036;-81
2021/12/08 06:56:39;;;;;;;9.10;3.38;;;;;;;3.86;81.86;99442.50;5028840;28;20092;-88
2021/12/08 06:59:21;;;;;;;8.80;2.28;;;;;;;3.83;81.37;99447.72;5032099;28;20575;-79
2021/12/08 07:02:05;;;;;;;8.50;1.98;;;;;;;3.79;81.63;99454.63;5032537;28;20033;-86
2021/12/08 07:04:53;;;;;;;7.97;2.20;;;;;;;3.72;81.22;99451.25;5032259;28;20025;-83
2021/12/08 07:07:22;;;;;;;10.60;2.80;;;;;;;3.65;81.03;99457.31;5029350;28;20029;-84
2021/12/08 07:09:56;;;;;;;5.70;2.47;;;;;;;3.60;81.54;99452.16;5015743;28;20095;-87
2021/12/08 07:12:26;;;;;;;9.10;2.05;;;;;;;3.58;81.45;99453.06;5032032;28;20036;-83
2021/12/08 07:15:01;;;;;;;11.20;1.95;;;;;;;3.51;81.74;99465.16;5032556;28;20025;-84
2021/12/08 07:17:29;;;;;;;7.03;2.65;;;;;;;3.45;82.10;99460.88;5031023;28;20025;-83
2021/12/08 07:22:51;;;;;;;8.68;2.33;;;;;;;3.42;81.65;99488.50;4997717;28;20036;-87
2021/12/08 07:25:20;;;;;;;6.13;2.72;;;;;;;3.41;81.50;99490.25;5011804;28;20111;-85
2021/12/08 07:27:46;;;;;;;16.02;3.55;;;;;;;3.39;81.74;99483.34;5031963;28;20115;-87
2021/12/08 07:30:33;;;;;;;15.18;3.17;;;;;;;3.36;81.80;99476.47;5030510;28;20026;-85
2021/12/08 07:32:59;;;;;;;13.93;3.03;;;;;;;3.28;81.84;99486.00;5030317;28;20021;-84
2021/12/08 07:35:45;;;;;;;10.95;2.70;;;;;;;3.23;82.32;99487.72;5015541;28;20056;-84
2021/12/08 07:38:14;;;;;;;9.18;2.30;;;;;;;3.22;82.39;99509.28;5032068;28;20026;-85
2021/12/08 07:40:45;;;;;;;8.45;3.05;;;;;;;3.19;82.53;99506.72;5039494;28;20033;-83
2021/12/08 07:43:17;;;;;;;7.53;1.90;;;;;;;3.14;82.28;99505.88;5027213;28;20029;-84
2021/12/08 07:45:50;;;;;;;10.82;2.35;;;;;;;3.12;82.00;99521.41;5031353;28;20394;-84
2021/12/08 07:48:20;;;;;;;11.23;3.47;;;;;;;3.08;82.04;99515.38;5031074;28;20473;-86
2021/12/08 07:50:51;;;;;;;11.63;2.20;;;;;;;3.09;82.23;99522.28;5027326;28;20072;-87
2021/12/08 07:53:19;;;;;;;10.00;3.35;;;;;;;3.12;82.38;99524.84;5030942;28;20033;-87
2021/12/08 07:55:48;;;;;;;13.80;3.10;;;;;;;3.14;82.34;99522.25;5031483;28;20033;-83
2021/12/08 07:58:16;;;;;;;11.55;3.58;;;;;;;3.18;82.27;99526.56;5031204;28;20452;-85
2021/12/08 08:00:49;;;;;;;14.77;3.42;;;;;;;3.21;82.49;99528.28;5047471;28;20168;-84
2021/12/08 08:03:18;;;;;;;5.68;2.25;;;;;;;3.23;82.19;99526.56;5030972;28;20033;-88
2021/12/08 08:05:50;;;;;;;7.05;3.08;;;;;;;3.25;82.11;99523.09;5031141;28;20025;-89
2021/12/08 08:08:17;;;;;;;5.25;2.10;;;;;;;3.33;81.96;99525.66;5031135;28;20028;-86
2021/12/08 08:10:49;;;;;;;7.43;2.50;;;;;;;3.34;81.72;99535.16;5014223;28;20033;-84
2021/12/08 08:13:21;;;;;;;11.27;2.47;;;;;;;3.34;82.20;99534.31;5030132;28;20064;-84
2021/12/08 08:15:52;;;;;;;10.25;2.15;;;;;;;3.36;81.78;99530.84;5046679;28;20025;-85
2021/12/08 08:18:23;;;;;;;18.95;2.70;;;;;;;3.42;80.83;99533.41;5019779;28;20389;-83
2021/12/08 08:20:52;;;;;;;9.45;2.35;;;;;;;3.44;81.13;99539.44;5027894;28;20026;-85
2021/12/08 08:23:20;;;;;;;9.90;2.45;;;;;;;3.46;81.22;99548.06;5011299;28;20052;-85
2021/12/08 08:25:47;;;;;;;16.05;3.00;;;;;;;3.47;81.57;99549.78;5028391;28;20028;-85
2021/12/08 08:28:16;;;;;;;3.25;2.05;;;;;;;3.48;80.88;99550.66;5014680;28;20105;-87
2021/12/08 08:30:53;;;;;;;10.10;2.17;;;;;;;3.54;80.86;99560.13;5014197;28;20524;-81
2021/12/08 08:33:19;;;;;;;10.52;3.10;;;;;;;3.53;81.16;99548.03;5029331;28;20371;-84
2021/12/08 08:35:54;;;;;;;10.50;2.40;;;;;;;3.56;81.25;99550.59;5028121;28;20106;-87
2021/12/08 08:38:27;;;;;;;13.27;3.63;;;;;;;3.56;81.68;99542.84;5030192;28;20052;-84
2021/12/08 08:40:58;;;;;;;8.88;2.63;;;;;;;3.60;79.98;99548.00;5030166;28;20112;-86
2021/12/08 08:43:27;;;;;;;7.68;2.65;;;;;;;3.63;80.49;99540.25;5029077;28;20025;-83
2021/12/08 08:46:08;;;;;;;10.80;3.72;;;;;;;3.68;80.29;99537.63;5030775;28;20021;-86
2021/12/08 08:48:41;;;;;;;7.43;1.73;;;;;;;3.73;79.22;99525.47;5030339;28;20056;-85
2021/12/08 08:51:18;;;;;;;12.02;3.08;;;;;;;3.81;79.76;99523.72;5025167;28;20494;-85
2021/12/08 08:53:47;;;;;;;5.25;2.20;;;;;;;3.86;79.66;99531.47;5011369;28;20026;-86
2021/12/08 08:56:18;;;;;;;5.78;2.40;;;;;;;3.93;79.05;99537.50;5027449;28;20103;-88
2021/12/08 08:58:50;;;;;;;6.50;2.03;;;;;;;3.98;78.15;99531.41;5009998;28;20069;-87
2021/12/08 09:01:20;;;;;;;4.55;2.95;;;;;;;4.03;77.64;99512.38;5030225;28;20470;-86
2021/12/08 09:03:58;;;;;;;9.13;3.00;;;;;;;4.04;77.44;99520.16;5029482;28;20029;-87
2021/12/08 09:06:30;;;;;;;10.15;2.70;;;;;;;4.14;76.86;99529.56;5023005;28;20104;-81
2021/12/08 09:08:58;;;;;;;7.45;2.33;;;;;;;4.24;77.21;99532.09;5030213;28;20112;-88
2021/12/08 09:11:27;;;;;;;6.68;2.05;;;;;;;4.37;76.66;99528.56;5014287;28;20111;-82
2021/12/08 09:14:11;;;;;;;12.93;2.53;;;;;;;4.54;75.75;99532.75;5030114;28;20022;-89
2021/12/08 09:16:44;;;;;;;5.35;2.20;;;;;;;5.47;76.28;99530.94;5030432;28;20112;-84
2021/12/08 09:19:19;;;;;;;4.88;2.13;;;;;;;6.81;73.67;99529.91;5030351;28;20017;-84
2021/12/08 09:22:10;;;;;;;11.70;2.15;;;;;;;7.54;68.95;99535.50;5030383;28;20040;-88
2021/12/08 09:24:47;;;;;;;11.63;2.28;;;;;;;8.01;67.51;99529.31;5030087;28;20060;-86
2021/12/08 09:27:20;;;;;;;8.38;2.05;;;;;;;8.11;63.13;99525.59;5029596;28;20048;-83
2021/12/08 09:29:55;;;;;;;7.28;1.98;;;;;;;8.52;62.62;99529.03;5030464;28;20018;-87
2021/12/08 09:33:02;;;;;;;3.58;1.70;;;;;;;9.21;64.35;99539.44;5028479;28;20496;-87
2021/12/08 09:35:47;;;;;;;11.93;2.60;;;;;;;10.50;59.47;99549.63;5020885;28;20045;-86
2021/12/08 09:38:19;;;;;;;10.02;1.98;;;;;;;10.80;56.35;99562.66;5021797;28;20049;-84
2021/12/08 09:40:55;;;;;;;6.40;2.08;;;;;;;11.35;57.50;99566.03;5029236;28;20128;-88
2021/12/08 09:43:33;;;;;;;12.05;2.85;;;;;;;12.09;52.87;99562.47;5029472;28;20056;-80
2021/12/08 09:46:17;;;;;;;8.93;2.92;;;;;;;12.42;52.51;99548.94;5027151;28;20049;-83
2021/12/08 09:48:45;;;;;;;8.02;2.33;;;;;;;13.17;52.37;99555.47;5013969;28;20045;-88
2021/12/08 09:51:13;;;;;;;8.45;2.28;;;;;;;13.76;48.81;99550.28;4997670;28;20026;-87
2021/12/08 09:53:42;;;;;;;9.82;2.80;;;;;;;13.72;47.33;99549.59;4998931;28;20104;-84
2021/12/08 09:56:07;;;;;;;6.55;2.03;;;;;;;14.09;46.39;99547.00;5030519;28;20037;-89
2021/12/08 09:58:35;;;;;;;6.82;2.38;;;;;;;14.34;45.42;99547.56;5017477;28;20053;-82
2021/12/08 10:01:02;;;;;;;5.28;2.10;;;;;;;14.14;44.75;99542.41;4998655;28;20113;-85
2021/12/08 10:03:28;;;;;;;4.95;2.00;;;;;;;14.60;44.47;99536.69;4998286;28;20033;-86
2021/12/08 10:05:55;;;;;;;7.93;2.65;;;;;;;14.19;44.14;99525.44;5037932;28;20410;-87
2021/12/08 10:08:21;;;;;;;5.00;2.50;;;;;;;13.43;46.47;99530.69;5017994;28;20079;-82
2021/12/08 10:10:49;;;;;;;8.43;1.90;;;;;;;13.42;47.63;99534.25;5034537;28;20477;-85
2021/12/08 10:13:15;;;;;;;6.03;2.28;;;;;;;14.33;46.14;99543.22;5017331;28;20044;-86
2021/12/08 10:15:41;;;;;;;6.13;2.45;;;;;;;14.98;43.91;99537.41;5017951;28;20037;-86
2021/12/08 10:18:25;;;;;;;8.48;2.08;;;;;;;15.50;43.49;99527.72;5014242;28;20030;-89
2021/12/08 10:20:54;;;;;;;5.60;2.20;;;;;;;15.33;41.14;99526.84;5027418;28;20048;-83
2021/12/08 10:23:24;;;;;;;8.60;3.42;;;;;;;16.89;44.75;99520.88;5033163;28;20044;-87
2021/12/08 10:26:00;;;;;;;5.28;1.80;;;;;;;17.53;38.32;99510.00;5033449;28;20434;-87
2021/12/08 10:28:29;;;;;;;7.05;2.42;;;;;;;18.49;37.23;99509.28;5033623;28;20037;-84
2021/12/08 10:30:57;;;;;;;8.07;2.95;;;;;;;19.43;36.21;99499.44;5032955;28;20029;-87
2021/12/08 10:36:43;;;;;;;8.38;2.40;;;;;;;18.92;34.77;99509.09;5032897;28;20044;-87
2021/12/08 10:39:11;;;;;;;6.50;2.00;;;;;;;19.65;36.53;99510.25;5015553;28;20335;-86
2021/12/08 10:41:44;;;;;;;8.50;1.98;;;;;;;19.79;36.32;99513.75;5026703;28;20038;-85
2021/12/08 10:44:10;;;;;;;3.80;1.70;;;;;;;18.25;34.98;99509.91;5034027;28;20026;-84
2021/12/08 10:47:14;;;;;;;10.95;2.00;;;;;;;17.38;37.23;99510.94;5001618;28;20393;-85
2021/12/08 10:54:59;;;;;;;10.73;2.38;;;;;;;14.80;40.06;99512.84;5018009;28;20045;-87
2021/12/08 10:57:31;;;;;;;4.88;1.67;;;;;;;13.77;43.66;99512.50;5040741;28;20052;-86
2021/12/08 11:00:12;;;;;;;6.65;2.72;;;;;;;12.82;45.43;99523.63;5033151;28;20116;-87
2021/12/08 11:02:40;;;;;;;8.38;2.03;;;;;;;11.66;48.54;99522.06;5023102;28;20029;-86
2021/12/08 11:05:27;;;;;;;6.03;3.35;;;;;;;10.84;50.44;99525.81;5013919;28;20112;-83
2021/12/08 11:08:01;;;;;;;8.88;2.58;;;;;;;9.94;53.07;99527.78;5017215;28;20029;-88
2021/12/08 11:14:07;;;;;;;7.00;2.03;;;;;;;9.64;54.07;99527.78;5026257;28;20505;-88
2021/12/08 11:17:10;;;;;;;4.88;2.28;;;;;;;10.01;54.36;99542.41;5013580;28;20039;-87
2021/12/08 11:19:37;;;;;;;4.57;1.90;;;;;;;10.25;53.30;99560.88;5032628;28;20508;-88
2021/12/08 11:22:06;;;;;;;8.57;2.92;;;;;;;9.92;53.60;99560.13;5000142;28;20044;-87
2021/12/08 11:24:45;;;;;;;7.63;1.90;;;;;;;10.03;53.43;99565.91;5012449;28;20091;-89
2021/12/08 11:27:29;;;;;;;5.53;2.28;;;;;;;11.05;51.20;99563.53;5013560;28;20489;-86
2021/12/08 11:30:21;;;;;;;6.32;2.40;;;;;;;11.86;50.63;99571.19;5024902;28;20366;-88
2021/12/08 11:32:47;;;;;;;31.73;12.25;;;;;;;12.45;48.88;99580.34;5013916;28;20045;-84
2021/12/08 11:35:21;;;;;;;191.52;80.95;;;;;;;11.30;50.64;99585.44;5033799;28;20072;-90
2021/12/08 11:38:00;;;;;;;12.52;4.90;;;;;;;9.85;54.56;99583.00;5008660;28;20382;-87
2021/12/08 11:40:26;;;;;;;19.08;6.15;;;;;;;8.74;57.85;99596.38;5013849;28;20397;-87
2021/12/08 11:42:52;;;;;;;17.25;6.88;;;;;;;7.68;59.14;99591.72;5021717;28;20110;-81
2021/12/08 11:45:19;;;;;;;27.23;11.02;;;;;;;7.12;62.32;99592.75;5007410;28;20034;-89
2021/12/08 11:47:44;;;;;;;39.88;19.63;;;;;;;6.74;64.86;99597.72;5031600;28;20366;-89
2021/12/08 11:50:47;;;;;;;66.20;28.67;;;;;;;6.53;65.15;99598.91;5018893;28;20048;-88
2021/12/08 11:53:20;;;;;;;8.90;2.92;;;;;;;6.12;67.41;99607.28;5046964;28;20555;-88
2021/12/08 11:55:46;;;;;;;53.58;19.90;;;;;;;6.00;68.17;99606.56;5022453;28;20032;-85
2021/12/08 11:58:11;;;;;;;13.50;5.03;;;;;;;5.88;67.71;99601.50;5014547;28;20057;-88
2021/12/08 12:00:40;;;;;;;86.45;33.20;;;;;;;5.78;68.83;99610.31;5007337;28;20120;-88
2021/12/08 12:03:10;;;;;;;7.78;2.42;;;;;;;5.62;69.50;99605.28;5015985;28;20037;-85
2021/12/08 12:05:47;;;;;;;39.30;17.13;;;;;;;5.58;70.14;99608.78;5028362;28;20525;-83
2021/12/08 12:08:22;;;;;;;2.95;2.10;;;;;;;5.52;70.08;99622.69;5020019;28;20488;-85
2021/12/08 12:10:53;;;;;;;31.70;9.93;;;;;;;5.45;70.84;99621.03;5027407;28;20100;-82
2021/12/08 12:13:19;;;;;;;8.82;3.13;;;;;;;5.41;71.18;99621.09;5024467;28;20024;-88
2021/12/08 12:19:15;;;;;;;61.17;26.95;;;;;;;5.26;71.72;99630.78;5022469;28;20390;-83
2021/12/08 12:21:53;;;;;;;10.98;3.03;;;;;;;5.20;72.47;99642.06;5015730;28;20029;-87
2021/12/08 12:25:00;;;;;;;36.70;15.77;;;;;;;5.22;71.98;99638.59;5043495;28;20018;-84
2021/12/08 12:28:10;;;;;;;78.18;37.72;;;;;;;5.20;71.73;99647.28;5027998;28;20083;-84
2021/12/08 12:30:51;;;;;;;9.07;2.72;;;;;;;5.18;72.39;99654.19;4994094;28;20058;-86
2021/12/08 12:33:22;;;;;;;10.15;5.30;;;;;;;5.16;72.51;99660.31;5016996;28;20072;-87
2021/12/08 12:35:54;;;;;;;9.82;3.60;;;;;;;5.15;72.63;99662.03;5015546;28;20033;-87
2021/12/08 12:38:38;;;;;;;18.65;9.18;;;;;;;5.13;72.59;99671.56;5021368;28;20052;-86
2021/12/08 12:41:06;;;;;;;6.53;3.42;;;;;;;5.11;72.53;99664.66;5026108;28;20029;-85
2021/12/08 12:43:39;;;;;;;37.03;15.65;;;;;;;5.10;72.66;99676.78;5024075;28;20052;-84
2021/12/08 12:46:12;;;;;;;9.27;2.78;;;;;;;5.11;72.78;99667.25;5024473;28;20052;-86
2021/12/08 12:49:17;;;;;;;7.35;4.05;;;;;;;5.11;72.56;99668.09;5016846;28;20017;-86
2021/12/08 12:52:05;;;;;;;17.10;6.25;;;;;;;5.12;72.77;99669.84;5027120;28;20037;-84
2021/12/08 12:54:31;;;;;;;8.35;3.78;;;;;;;5.10;73.35;99661.22;5025749;28;20044;-87
2021/12/08 12:57:03;;;;;;;13.73;5.07;;;;;;;5.08;73.56;99670.72;4993029;28;20124;-88
2021/12/08 12:59:58;;;;;;;11.75;5.07;;;;;;;5.08;73.10;99667.28;5023487;28;20022;-88
2021/12/08 13:02:33;;;;;;;12.43;7.03;;;;;;;5.06;73.38;99669.91;5009577;28;20056;-87